Time;durP1;ratioP1;P1;durP2;ratioP2;P2;SDS_P1;SDS_P2;PMS_P1;PMS_P2;Temp;Humidity;BMP_temperature;BMP_pressure;BME280_temperature;BME280_humidity;BME280_pressure;Samples;Min_cycle;Max_cycle;Signal;HPM_P1;HPM_P2
2022/07/29 00:01:29;;;;;;;6.65;3.65;;;;;;;13.86;100.00;100553.06;1753008;81;21016;-67
2022/07/29 00:03:56;;;;;;;8.63;3.60;;;;;;;13.83;100.00;100556.70;1753496;81;21021;-68
2022/07/29 00:06:22;;;;;;;7.12;3.42;;;;;;;13.81;100.00;100555.06;1753450;81;21049;-68
2022/07/29 00:08:49;;;;;;;5.33;3.70;;;;;;;13.77;100.00;100559.61;1753392;81;21016;-68
2022/07/29 00:11:16;;;;;;;14.60;4.05;;;;;;;13.74;100.00;100562.40;1753264;81;21542;-69
2022/07/29 00:13:44;;;;;;;7.28;3.65;;;;;;;13.70;100.00;100567.89;1753182;81;21067;-68
2022/07/29 00:16:11;;;;;;;10.35;4.03;;;;;;;13.67;100.00;100568.03;1752972;81;21056;-67
2022/07/29 00:18:39;;;;;;;9.68;3.60;;;;;;;13.66;100.00;100568.94;1753108;81;21022;-68
2022/07/29 00:21:06;;;;;;;6.87;3.47;;;;;;;13.62;100.00;100571.73;1753055;81;21068;-67
2022/07/29 00:23:32;;;;;;;10.58;3.52;;;;;;;13.59;100.00;100573.16;1753127;81;21181;-68
2022/07/29 00:25:59;;;;;;;5.42;3.47;;;;;;;13.56;100.00;100574.62;1753385;81;21052;-68
2022/07/29 00:28:26;;;;;;;5.33;3.35;;;;;;;13.53;100.00;100572.13;1725879;81;21049;-66
2022/07/29 00:30:53;;;;;;;5.20;3.22;;;;;;;13.53;100.00;100563.33;1753286;81;21076;-68
2022/07/29 00:33:20;;;;;;;7.00;3.20;;;;;;;13.50;100.00;100566.94;1753480;81;21104;-67
2022/07/29 00:35:47;;;;;;;9.23;3.27;;;;;;;13.48;100.00;100560.88;1753367;81;21250;-67
2022/07/29 00:38:16;;;;;;;8.65;3.72;;;;;;;13.45;100.00;100554.84;1753599;81;20965;-68
2022/07/29 00:40:43;;;;;;;10.05;3.65;;;;;;;13.41;100.00;100551.45;1753734;81;21565;-68
2022/07/29 00:43:13;;;;;;;10.43;3.40;;;;;;;13.37;100.00;100547.23;1753493;81;21036;-68
2022/07/29 00:45:42;;;;;;;5.17;2.95;;;;;;;13.35;100.00;100551.73;1753838;81;21032;-69
2022/07/29 00:48:09;;;;;;;10.30;3.52;;;;;;;13.34;100.00;100551.31;1753426;81;21199;-69
2022/07/29 00:50:36;;;;;;;7.67;3.08;;;;;;;13.33;100.00;100549.14;1753471;81;21068;-67
2022/07/29 00:53:06;;;;;;;9.48;3.60;;;;;;;13.33;100.00;100550.93;1753633;81;21501;-67
2022/07/29 00:55:34;;;;;;;5.80;3.67;;;;;;;13.35;100.00;100549.08;1753740;81;21000;-67
2022/07/29 00:58:00;;;;;;;9.83;3.15;;;;;;;13.35;100.00;100543.80;1753486;81;21027;-67
2022/07/29 01:00:28;;;;;;;6.35;3.80;;;;;;;13.32;100.00;100545.22;1757997;80;21094;-67
2022/07/29 01:02:54;;;;;;;9.48;4.03;;;;;;;13.30;100.00;100541.34;1778822;80;21068;-68
2022/07/29 01:05:23;;;;;;;9.90;3.45;;;;;;;13.30;100.00;100545.78;1778590;80;21088;-67
2022/07/29 01:07:53;;;;;;;8.33;3.58;;;;;;;13.31;100.00;100542.20;1779018;80;21553;-69
2022/07/29 01:10:20;;;;;;;6.22;3.40;;;;;;;13.27;100.00;100549.34;1778846;80;21049;-68
2022/07/29 01:12:50;;;;;;;5.78;3.70;;;;;;;13.26;100.00;100545.00;1778622;80;21017;-66
2022/07/29 01:15:17;;;;;;;9.40;4.35;;;;;;;13.23;100.00;100545.98;1778837;80;21084;-68
2022/07/29 01:18:15;;;;;;;6.20;4.05;;;;;;;13.21;100.00;100547.83;1778598;80;21059;-68
2022/07/29 01:20:57;;;;;;;6.33;3.70;;;;;;;13.20;100.00;100549.20;1778234;80;21073;-67
2022/07/29 01:24:09;;;;;;;7.47;3.50;;;;;;;13.16;100.00;100548.96;1778217;80;21104;-67
2022/07/29 01:26:59;;;;;;;6.53;3.17;;;;;;;13.13;100.00;100549.06;1778769;80;21932;-67
2022/07/29 01:29:37;;;;;;;8.85;2.92;;;;;;;13.07;100.00;100552.83;1778711;80;20970;-67
2022/07/29 01:32:15;;;;;;;4.97;3.00;;;;;;;13.04;100.00;100542.36;1778271;80;21029;-69
2022/07/29 01:35:05;;;;;;;9.33;3.42;;;;;;;13.04;100.00;100550.30;1778771;80;21063;-67
2022/07/29 01:37:43;;;;;;;7.78;3.75;;;;;;;13.05;100.00;100556.47;1778786;80;21036;-66
2022/07/29 01:40:31;;;;;;;6.55;3.58;;;;;;;13.05;100.00;100556.47;1778678;80;22110;-67
2022/07/29 01:42:59;;;;;;;8.45;3.50;;;;;;;13.06;100.00;100555.06;1778698;80;20989;-68
2022/07/29 01:45:45;;;;;;;7.87;3.98;;;;;;;13.05;100.00;100557.32;1778759;80;21668;-68
2022/07/29 01:48:18;;;;;;;7.40;3.65;;;;;;;13.03;100.00;100555.66;1778798;80;21037;-68
2022/07/29 01:51:09;;;;;;;6.80;3.40;;;;;;;13.00;100.00;100556.66;1778877;80;21129;-70
2022/07/29 01:53:51;;;;;;;6.00;3.65;;;;;;;12.99;100.00;100556.23;1770827;80;21147;-67
2022/07/29 01:56:19;;;;;;;6.05;3.52;;;;;;;12.85;100.00;100544.89;1747948;82;21016;-69
2022/07/29 01:58:46;;;;;;;6.65;3.87;;;;;;;12.89;100.00;100552.25;1748553;82;21330;-68
2022/07/29 02:01:12;;;;;;;6.83;3.47;;;;;;;12.86;100.00;100545.75;1763383;80;21604;-69
2022/07/29 02:03:39;;;;;;;8.55;3.83;;;;;;;12.84;100.00;100551.55;1779451;80;21451;-68
2022/07/29 02:06:06;;;;;;;5.87;4.08;;;;;;;12.82;100.00;100557.38;1778697;80;21134;-67
2022/07/29 02:08:34;;;;;;;6.58;3.83;;;;;;;12.81;100.00;100563.11;1778873;80;21012;-68
2022/07/29 02:11:00;;;;;;;7.95;3.87;;;;;;;12.80;100.00;100568.86;1778614;80;21064;-68
2022/07/29 02:13:29;;;;;;;8.83;4.15;;;;;;;12.80;100.00;100566.22;1748996;80;21014;-66
2022/07/29 02:15:57;;;;;;;5.67;3.42;;;;;;;12.80;100.00;100567.54;1778634;80;21056;-69
2022/07/29 02:18:25;;;;;;;8.40;4.08;;;;;;;12.80;100.00;100564.89;1778952;80;21138;-68
2022/07/29 02:20:54;;;;;;;9.30;4.50;;;;;;;12.79;100.00;100563.19;1778765;80;21041;-68
2022/07/29 02:23:23;;;;;;;10.32;4.62;;;;;;;12.78;100.00;100565.41;1779040;80;21028;-67
2022/07/29 02:25:54;;;;;;;5.58;3.85;;;;;;;12.79;100.00;100561.87;1778764;80;21077;-68
2022/07/29 02:28:25;;;;;;;12.13;4.15;;;;;;;12.77;100.00;100567.67;1779108;80;21042;-67
2022/07/29 02:30:59;;;;;;;6.50;3.30;;;;;;;12.77;100.00;100566.81;1778873;80;21920;-68
2022/07/29 02:33:26;;;;;;;6.20;3.83;;;;;;;12.78;100.00;100564.56;1778648;80;21001;-69
2022/07/29 02:35:54;;;;;;;7.33;4.00;;;;;;;12.77;100.00;100562.38;1778638;80;21092;-66
2022/07/29 02:41:13;;;;;;;8.63;4.50;;;;;;;12.76;100.00;100568.57;1778876;80;21061;-67
2022/07/29 02:43:41;;;;;;;5.92;3.90;;;;;;;12.76;100.00;100572.53;1778755;80;21002;-68
2022/07/29 02:46:12;;;;;;;9.03;4.12;;;;;;;12.73;100.00;100564.73;1778519;80;21013;-69
2022/07/29 02:48:43;;;;;;;7.87;4.00;;;;;;;12.74;100.00;100561.63;1775940;80;21022;-68
2022/07/29 02:51:25;;;;;;;6.33;3.30;;;;;;;12.76;100.00;100564.61;1778625;80;21028;-67
2022/07/29 02:53:53;;;;;;;5.30;3.52;;;;;;;12.78;100.00;100570.70;1771928;80;21061;-68
2022/07/29 02:56:27;;;;;;;5.85;3.80;;;;;;;12.84;100.00;100575.34;1747963;82;21097;-68
2022/07/29 02:58:57;;;;;;;6.90;3.75;;;;;;;12.85;100.00;100569.15;1748165;82;21016;-68
2022/07/29 03:01:28;;;;;;;6.80;3.83;;;;;;;12.88;100.00;100572.98;1768761;80;21064;-68
2022/07/29 03:03:56;;;;;;;12.93;4.28;;;;;;;12.92;100.00;100570.16;1784648;80;21255;-69
2022/07/29 03:06:25;;;;;;;11.57;4.00;;;;;;;12.97;100.00;100575.27;1784460;80;21056;-68
2022/07/29 03:08:51;;;;;;;10.32;4.10;;;;;;;13.04;100.00;100574.55;1784607;80;21129;-68
2022/07/29 03:11:19;;;;;;;10.95;4.15;;;;;;;13.10;100.00;100569.89;1782938;80;21032;-67
2022/07/29 03:13:46;;;;;;;7.65;4.40;;;;;;;13.19;100.00;100572.63;1784631;80;21112;-67
2022/07/29 03:16:12;;;;;;;7.67;4.03;;;;;;;13.26;100.00;100571.91;1784418;80;21037;-68
2022/07/29 03:18:39;;;;;;;7.37;3.90;;;;;;;13.36;100.00;100574.59;1784561;80;21080;-68
2022/07/29 03:21:07;;;;;;;14.73;3.87;;;;;;;13.47;100.00;100576.34;1784385;80;21243;-68
2022/07/29 03:23:35;;;;;;;7.95;4.20;;;;;;;13.59;100.00;100573.16;1731998;80;21537;-68
2022/07/29 03:26:05;;;;;;;7.72;3.15;;;;;;;13.73;100.00;100574.37;1784264;80;21506;-67
2022/07/29 03:28:32;;;;;;;7.15;3.75;;;;;;;13.86;100.00;100571.59;1784786;80;21009;-68
2022/07/29 03:31:00;;;;;;;6.90;3.55;;;;;;;14.01;100.00;100569.61;1784585;80;21068;-68
2022/07/29 03:33:28;;;;;;;7.47;3.35;;;;;;;14.20;100.00;100572.76;1784547;80;21077;-69
2022/07/29 03:35:55;;;;;;;7.10;3.58;;;;;;;14.40;100.00;100578.02;1784378;80;21016;-68
2022/07/29 03:38:26;;;;;;;6.00;3.10;;;;;;;14.66;100.00;100573.33;1784542;80;21064;-68
2022/07/29 03:40:57;;;;;;;7.83;3.40;;;;;;;15.10;100.00;100576.49;1785024;80;21033;-68
2022/07/29 03:43:23;;;;;;;3.08;2.20;;;;;;;15.73;100.00;100576.05;1784809;80;21690;-68
2022/07/29 03:45:53;;;;;;;7.85;3.30;;;;;;;16.33;100.00;100574.69;1785020;80;21735;-68
2022/07/29 03:48:22;;;;;;;;;;;;;;;16.87;95.96;100585.94;1787157;80;20997;-69
2022/07/29 03:50:50;;;;;;;5.08;2.85;;;;;;;17.39;92.14;100582.97;1784798;80;20173;-67
2022/07/29 03:53:17;;;;;;;9.98;3.52;;;;;;;17.88;89.58;100583.70;1784529;80;21025;-68
2022/07/29 03:55:48;;;;;;;6.72;3.37;;;;;;;18.40;85.25;100584.48;1753340;81;21607;-68
2022/07/29 03:58:16;;;;;;;8.40;3.15;;;;;;;18.79;82.67;100585.63;1750969;81;21202;-68
2022/07/29 04:00:44;;;;;;;5.40;3.15;;;;;;;19.19;79.73;100576.37;1753009;81;21068;-68
2022/07/29 04:03:11;;;;;;;4.08;2.65;;;;;;;19.59;78.00;100583.05;1752677;81;21044;-67
2022/07/29 04:05:37;;;;;;;9.33;2.83;;;;;;;20.06;75.67;100580.30;1753424;81;21045;-69
2022/07/29 04:08:05;;;;;;;8.43;3.00;;;;;;;20.47;72.64;100582.73;1753395;81;21076;-68
2022/07/29 04:10:32;;;;;;;9.48;3.27;;;;;;;20.84;70.59;100577.92;1753210;81;21589;-67
2022/07/29 04:13:00;;;;;;;7.35;3.22;;;;;;;21.21;68.99;100581.91;1753415;81;21103;-68
2022/07/29 04:15:28;;;;;;;6.75;2.70;;;;;;;21.55;67.76;100578.92;1753271;81;21100;-69
2022/07/29 04:17:55;;;;;;;3.90;2.22;;;;;;;21.90;65.57;100580.26;1753515;81;21044;-68
2022/07/29 04:20:23;;;;;;;7.85;2.72;;;;;;;22.30;63.16;100586.55;1753303;81;21488;-68
2022/07/29 04:22:50;;;;;;;4.40;2.70;;;;;;;22.65;60.55;100578.84;1753625;81;21065;-68
2022/07/29 04:25:17;;;;;;;5.53;2.52;;;;;;;22.95;59.34;100582.71;1753552;81;21029;-68
2022/07/29 04:28:01;;;;;;;5.42;2.50;;;;;;;23.19;58.10;100581.20;1753419;81;21084;-68
2022/07/29 04:30:30;;;;;;;4.00;2.15;;;;;;;23.43;55.18;100574.28;1753441;81;21028;-68
2022/07/29 04:32:56;;;;;;;12.05;2.80;;;;;;;23.71;53.54;100577.32;1753663;81;21112;-68
2022/07/29 04:35:23;;;;;;;12.18;2.55;;;;;;;23.95;51.60;100576.61;1753619;81;21917;-68
2022/07/29 04:37:50;;;;;;;12.00;2.40;;;;;;;24.00;51.38;100573.02;1753538;81;20997;-69
2022/07/29 04:40:18;;;;;;;6.12;2.12;;;;;;;24.19;50.19;100571.42;1753442;81;21014;-68
2022/07/29 04:42:46;;;;;;;5.25;2.12;;;;;;;24.37;48.73;100569.80;1753259;81;21122;-68
2022/07/29 04:45:14;;;;;;;6.67;2.00;;;;;;;24.53;48.08;100569.33;1753722;81;21100;-68
2022/07/29 04:47:41;;;;;;;4.03;2.22;;;;;;;24.69;45.42;100568.32;1753558;81;21070;-68
2022/07/29 04:50:09;;;;;;;5.37;1.82;;;;;;;24.72;44.98;100561.80;1753765;81;21032;-68
2022/07/29 04:52:37;;;;;;;6.28;2.10;;;;;;;24.76;45.79;100552.47;1753544;81;21071;-68
2022/07/29 04:55:06;;;;;;;9.25;2.30;;;;;;;24.94;45.83;100553.12;1776517;80;21079;-66
2022/07/29 04:57:33;;;;;;;3.00;1.90;;;;;;;25.18;45.20;100546.88;1784503;80;21076;-68
2022/07/29 05:00:00;;;;;;;4.87;2.05;;;;;;;25.35;43.29;100544.47;1784753;80;21130;-68
2022/07/29 05:02:26;;;;;;;5.33;2.30;;;;;;;25.44;43.25;100550.34;1784538;80;21548;-69
2022/07/29 05:04:53;;;;;;;6.25;2.27;;;;;;;25.49;43.64;100550.30;1784567;80;21457;-67
2022/07/29 05:07:19;;;;;;;8.70;2.17;;;;;;;25.70;43.59;100551.47;1784742;80;21536;-68
2022/07/29 05:09:48;;;;;;;8.80;2.30;;;;;;;25.99;41.38;100549.73;1784725;80;21041;-68
2022/07/29 05:12:14;;;;;;;5.95;2.12;;;;;;;26.18;41.92;100550.16;1784546;80;21521;-69
2022/07/29 05:14:42;;;;;;;3.83;2.17;;;;;;;26.39;40.70;100546.75;1784634;80;21017;-67
2022/07/29 05:17:09;;;;;;;5.85;2.37;;;;;;;26.52;40.18;100544.53;1784536;80;20997;-68
2022/07/29 05:19:37;;;;;;;9.03;2.27;;;;;;;26.68;39.34;100539.02;1784759;80;21541;-70
2022/07/29 05:22:05;;;;;;;7.50;2.47;;;;;;;26.79;40.26;100546.41;1784382;80;21004;-68
2022/07/29 05:24:31;;;;;;;6.10;2.10;;;;;;;26.99;38.91;100548.48;1784568;80;21247;-68
2022/07/29 05:26:58;;;;;;;6.83;2.30;;;;;;;27.06;39.33;100562.23;1784344;80;21336;-67
2022/07/29 05:29:25;;;;;;;4.58;2.15;;;;;;;27.17;39.02;100555.73;1784521;80;21088;-69
2022/07/29 05:31:52;;;;;;;9.65;2.70;;;;;;;27.23;39.34;100564.62;1784445;80;20981;-68
2022/07/29 05:34:19;;;;;;;7.10;2.30;;;;;;;26.99;39.73;100559.30;1784458;80;21028;-69
2022/07/29 05:36:46;;;;;;;4.40;1.90;;;;;;;26.95;40.23;100563.30;1784374;80;21526;-69
2022/07/29 05:39:13;;;;;;;4.78;2.35;;;;;;;26.89;39.90;100561.20;1784497;80;21064;-68
2022/07/29 05:41:40;;;;;;;7.72;2.02;;;;;;;26.87;40.48;100559.17;1783961;80;20993;-69
2022/07/29 05:44:06;;;;;;;10.70;2.70;;;;;;;26.82;39.40;100557.41;1784617;80;21005;-68
2022/07/29 05:46:34;;;;;;;7.97;2.60;;;;;;;26.85;40.32;100558.47;1784510;80;21113;-69
2022/07/29 05:49:02;;;;;;;4.40;1.98;;;;;;;26.84;39.61;100563.51;1784532;80;21227;-68
2022/07/29 05:51:30;;;;;;;3.45;1.75;;;;;;;26.71;39.93;100563.02;1784537;80;21005;-68
2022/07/29 05:53:57;;;;;;;5.33;1.82;;;;;;;26.67;40.57;100569.23;1784472;80;21060;-69
2022/07/29 05:56:26;;;;;;;5.97;2.40;;;;;;;26.50;40.91;100566.81;1784420;80;21064;-69
2022/07/29 05:58:53;;;;;;;4.80;1.62;;;;;;;26.40;40.82;100561.09;1780947;80;21059;-69
2022/07/29 06:01:20;;;;;;;13.32;2.52;;;;;;;26.58;40.89;100562.03;1753426;81;21206;-69
2022/07/29 06:03:46;;;;;;;10.35;2.22;;;;;;;26.98;40.34;100568.89;1753415;81;21560;-70
2022/07/29 06:06:13;;;;;;;9.00;2.08;;;;;;;27.36;39.81;100566.44;1753449;81;21587;-70
2022/07/29 06:08:40;;;;;;;3.50;2.25;;;;;;;27.74;39.35;100571.14;1753734;81;21033;-68
2022/07/29 06:11:08;;;;;;;5.83;2.10;;;;;;;28.06;37.95;100569.70;1753395;81;21999;-69
2022/07/29 06:13:34;;;;;;;6.28;2.35;;;;;;;28.38;36.75;100570.91;1753896;81;21203;-69
2022/07/29 06:16:04;;;;;;;7.47;2.50;;;;;;;28.60;36.56;100570.36;1753294;81;21052;-70
2022/07/29 06:18:30;;;;;;;6.03;2.37;;;;;;;28.68;37.08;100569.53;1753295;81;21348;-70
2022/07/29 06:20:58;;;;;;;5.90;1.92;;;;;;;28.68;36.34;100571.41;1753294;81;21097;-69
2022/07/29 06:23:26;;;;;;;16.67;2.47;;;;;;;28.61;35.24;100563.91;1753363;81;21056;-70
2022/07/29 06:25:54;;;;;;;5.87;1.47;;;;;;;28.48;35.41;100562.16;1753600;81;21745;-70
2022/07/29 06:28:21;;;;;;;5.12;1.55;;;;;;;28.51;33.89;100567.79;1753363;81;21020;-69
2022/07/29 06:30:48;;;;;;;10.63;2.27;;;;;;;28.76;34.28;100557.86;1753934;81;21059;-70
2022/07/29 06:33:18;;;;;;;4.47;1.80;;;;;;;28.96;32.83;100556.56;1753511;81;21032;-67
2022/07/29 06:35:47;;;;;;;4.65;1.50;;;;;;;28.89;32.04;100556.89;1753552;81;21168;-70
2022/07/29 06:38:14;;;;;;;2.85;1.17;;;;;;;28.72;32.09;100561.94;1753487;81;21890;-68
2022/07/29 06:41:00;;;;;;;5.05;1.52;;;;;;;28.56;31.79;100562.21;1753595;81;21482;-69
2022/07/29 06:43:37;;;;;;;3.20;1.37;;;;;;;28.59;32.74;100555.09;1753671;81;21536;-68
2022/07/29 06:46:07;;;;;;;4.17;1.47;;;;;;;28.62;32.41;100556.15;1753928;81;21581;-70
2022/07/29 06:48:34;;;;;;;5.50;1.77;;;;;;;28.95;31.67;100554.88;1753691;81;21539;-71
2022/07/29 06:51:03;;;;;;;7.15;1.62;;;;;;;29.09;30.94;100560.70;1753413;81;21221;-69
2022/07/29 06:53:30;;;;;;;4.33;1.20;;;;;;;29.05;30.68;100558.27;1755946;80;21033;-68
2022/07/29 06:55:59;;;;;;;3.98;1.65;;;;;;;29.05;29.74;100558.80;1784600;80;21561;-69
2022/07/29 06:58:29;;;;;;;4.10;1.80;;;;;;;29.02;30.81;100557.27;1784612;80;21041;-69
2022/07/29 07:00:57;;;;;;;11.45;1.70;;;;;;;29.12;30.45;100557.14;1784389;80;20985;-69
2022/07/29 07:03:25;;;;;;;6.92;1.85;;;;;;;29.39;30.36;100554.63;1752360;80;21096;-69
2022/07/29 07:05:53;;;;;;;5.90;1.57;;;;;;;29.76;29.83;100551.09;1778729;80;21069;-67
2022/07/29 07:08:22;;;;;;;11.80;2.00;;;;;;;29.88;29.81;100551.91;1779376;80;21084;-69
2022/07/29 07:10:52;;;;;;;4.67;1.40;;;;;;;30.33;30.23;100556.94;1778674;80;21520;-69
2022/07/29 07:13:19;;;;;;;9.90;1.60;;;;;;;30.71;28.51;100559.30;1778944;80;21076;-69
2022/07/29 07:15:48;;;;;;;5.87;1.47;;;;;;;30.81;28.50;100556.38;1778818;80;21860;-69
2022/07/29 07:18:15;;;;;;;5.25;1.32;;;;;;;30.90;27.98;100554.82;1778449;80;21057;-70
2022/07/29 07:20:42;;;;;;;6.97;1.22;;;;;;;30.90;27.80;100553.98;1778913;80;20965;-69
2022/07/29 07:23:09;;;;;;;5.25;1.55;;;;;;;30.89;27.65;100559.91;1778752;80;21100;-69
2022/07/29 07:25:36;;;;;;;3.05;1.37;;;;;;;30.88;28.13;100558.75;1778746;80;21478;-69
2022/07/29 07:28:03;;;;;;;3.75;1.62;;;;;;;31.10;27.52;100559.27;1778637;80;21142;-69
2022/07/29 07:30:30;;;;;;;6.22;1.50;;;;;;;31.14;27.43;100560.60;1779121;80;20984;-69
2022/07/29 07:32:57;;;;;;;3.08;1.80;;;;;;;31.21;27.73;100563.97;1778645;80;21009;-69
2022/07/29 07:35:24;;;;;;;7.42;1.92;;;;;;;31.31;27.82;100561.84;1778621;80;21021;-70
2022/07/29 07:37:50;;;;;;;3.65;1.92;;;;;;;31.56;27.21;100563.39;1778412;80;21021;-69
2022/07/29 07:40:17;;;;;;;6.62;1.85;;;;;;;31.68;27.16;100557.48;1778570;80;21303;-70
2022/07/29 07:42:44;;;;;;;5.62;1.70;;;;;;;31.74;27.29;100554.03;1778486;80;21105;-70
2022/07/29 07:45:11;;;;;;;5.47;2.45;;;;;;;31.76;27.61;100560.98;1778544;80;21037;-69
2022/07/29 07:47:38;;;;;;;5.33;2.47;;;;;;;31.98;26.97;100556.55;1778482;80;21510;-69
2022/07/29 07:50:08;;;;;;;6.22;2.60;;;;;;;32.34;26.91;100555.78;1778584;80;20989;-68
2022/07/29 07:52:38;;;;;;;4.03;2.25;;;;;;;32.37;27.14;100563.61;1778561;80;21208;-68
2022/07/29 07:55:07;;;;;;;6.30;1.85;;;;;;;32.42;27.54;100564.89;1734917;80;20970;-69
2022/07/29 07:57:33;;;;;;;3.62;2.17;;;;;;;32.77;25.98;100566.86;1778608;80;21056;-69
2022/07/29 08:00:00;;;;;;;4.33;1.90;;;;;;;32.89;25.86;100566.36;1778517;80;21088;-69
2022/07/29 08:02:27;;;;;;;3.98;2.02;;;;;;;32.95;26.14;100565.08;1778423;80;21013;-67
2022/07/29 08:04:54;;;;;;;5.55;2.20;;;;;;;33.06;26.38;100559.68;1778571;80;21062;-69
2022/07/29 08:07:20;;;;;;;5.05;1.95;;;;;;;33.08;26.01;100560.30;1778185;80;20974;-69
2022/07/29 08:09:47;;;;;;;5.33;2.25;;;;;;;33.12;25.98;100558.87;1778558;80;21076;-69
2022/07/29 08:12:14;;;;;;;2.95;1.87;;;;;;;33.48;25.73;100563.44;1778378;80;21072;-68
2022/07/29 08:17:07;;;;;;;5.53;2.40;;;;;;;33.73;25.19;100562.53;1814139;79;22463;-68
2022/07/29 08:19:38;;;;;;;4.17;2.00;;;;;;;33.49;25.42;100569.20;1787417;80;21131;-69
2022/07/29 08:22:06;;;;;;;7.20;2.60;;;;;;;33.30;25.98;100564.42;1787016;80;21044;-69
2022/07/29 08:24:44;;;;;;;6.10;1.98;;;;;;;32.91;26.11;100564.30;1787560;80;21100;-69
2022/07/29 08:27:11;;;;;;;4.95;1.80;;;;;;;32.69;26.14;100564.23;1787438;80;21009;-70
2022/07/29 08:29:39;;;;;;;4.97;1.87;;;;;;;32.64;26.56;100563.97;1787314;80;20981;-69
2022/07/29 08:32:07;;;;;;;3.87;2.10;;;;;;;33.06;26.40;100558.31;1787448;80;21068;-69
2022/07/29 08:34:34;;;;;;;7.62;2.30;;;;;;;33.44;25.90;100559.41;1787130;80;22085;-70
2022/07/29 08:37:00;;;;;;;8.35;1.87;;;;;;;33.55;24.94;100558.87;1787287;80;21536;-69
2022/07/29 08:39:27;;;;;;;5.70;1.82;;;;;;;33.38;25.67;100561.05;1787177;80;21129;-68
2022/07/29 08:41:54;;;;;;;6.67;2.05;;;;;;;33.30;25.87;100552.14;1762372;79;21490;-68
2022/07/29 08:44:26;;;;;;;6.47;2.12;;;;;;;33.27;25.60;100551.14;1756137;81;21056;-69
2022/07/29 08:46:49;;;;;;;5.25;1.80;;;;;;;33.29;26.62;100561.34;1755752;81;21784;-69
2022/07/29 08:49:17;;;;;;;5.15;1.90;;;;;;;33.10;25.92;100550.04;1756368;81;21037;-69
2022/07/29 08:51:44;;;;;;;10.53;2.42;;;;;;;32.90;25.74;100555.77;1756017;81;21549;-70
2022/07/29 08:54:10;;;;;;;4.10;2.00;;;;;;;32.77;26.47;100560.05;1726737;81;21053;-69
2022/07/29 08:56:37;;;;;;;2.65;1.62;;;;;;;32.75;26.07;100556.66;1756306;81;21064;-69
2022/07/29 08:59:05;;;;;;;28.77;4.08;;;;;;;32.89;26.15;100552.20;1756306;81;21013;-70
2022/07/29 09:01:33;;;;;;;6.58;1.92;;;;;;;32.89;26.50;100552.20;1756178;81;21490;-67
2022/07/29 09:04:02;;;;;;;6.60;2.20;;;;;;;33.15;26.89;100550.82;1756530;81;20997;-68
2022/07/29 09:06:36;;;;;;;7.77;2.23;;;;;;;33.51;25.30;100550.75;1756314;81;21048;-69
2022/07/29 09:09:03;;;;;;;6.33;2.10;;;;;;;33.61;25.08;100547.20;1756131;81;21569;-68
2022/07/29 09:11:32;;;;;;;2.30;1.62;;;;;;;33.48;25.69;100545.69;1756562;81;21775;-69
2022/07/29 09:14:00;;;;;;;11.38;2.30;;;;;;;33.51;25.42;100541.19;1727263;81;21112;-70
2022/07/29 09:16:49;;;;;;;6.30;2.27;;;;;;;33.57;25.42;100544.54;1753115;81;21024;-71
2022/07/29 09:19:31;;;;;;;7.92;2.20;;;;;;;33.50;25.69;100541.38;1751419;81;21069;-69
2022/07/29 09:22:00;;;;;;;4.12;1.70;;;;;;;33.37;25.74;100544.86;1751241;81;21903;-70
2022/07/29 09:24:44;;;;;;;3.62;2.10;;;;;;;33.20;25.59;100542.39;1751345;81;21383;-69
2022/07/29 09:27:25;;;;;;;4.80;1.80;;;;;;;32.96;26.04;100547.66;1750942;81;21052;-68
2022/07/29 09:30:04;;;;;;;4.80;2.12;;;;;;;32.84;26.45;100547.02;1748707;82;21077;-70
2022/07/29 09:32:33;;;;;;;4.60;1.93;;;;;;;32.74;26.79;100542.71;1751070;82;21548;-70
2022/07/29 09:35:21;;;;;;;22.58;2.72;;;;;;;32.75;27.40;100548.48;1723524;81;21600;-69
2022/07/29 09:37:48;;;;;;;4.58;2.02;;;;;;;32.71;27.33;100548.53;1750655;82;21219;-69
2022/07/29 09:40:21;;;;;;;6.30;2.10;;;;;;;32.48;27.14;100545.06;1750570;79;21080;-71
2022/07/29 09:42:47;;;;;;;3.83;1.90;;;;;;;32.48;27.41;100545.06;1750559;82;21088;-70
2022/07/29 09:45:33;;;;;;;5.90;1.98;;;;;;;32.62;27.92;100546.95;1750953;81;21585;-68
2022/07/29 09:48:17;;;;;;;5.90;1.90;;;;;;;32.86;27.70;100542.22;1750812;82;21080;-69
2022/07/29 09:50:48;;;;;;;8.48;2.20;;;;;;;33.00;27.45;100548.13;1750637;82;21136;-71
2022/07/29 09:53:37;;;;;;;4.35;2.10;;;;;;;32.94;27.43;100544.80;1750605;82;21042;-71
2022/07/29 09:56:04;;;;;;;4.12;1.90;;;;;;;32.75;27.38;100543.55;1715045;83;21561;-69
2022/07/29 09:58:35;;;;;;;10.05;2.20;;;;;;;32.42;27.89;100545.81;1714903;83;21089;-68
2022/07/29 10:01:03;;;;;;;3.08;1.80;;;;;;;32.26;28.28;100545.00;1715049;83;21656;-69
2022/07/29 10:03:30;;;;;;;4.35;1.82;;;;;;;32.13;27.99;100543.44;1714944;83;21253;-70
2022/07/29 10:06:08;;;;;;;6.62;2.00;;;;;;;32.05;28.19;100540.31;1715078;83;21014;-71
2022/07/29 10:08:36;;;;;;;10.13;2.15;;;;;;;31.86;28.44;100544.37;1714909;83;21057;-69
2022/07/29 10:11:15;;;;;;;5.92;2.15;;;;;;;31.61;28.40;100542.91;1715158;83;21053;-71
2022/07/29 10:13:43;;;;;;;6.85;1.82;;;;;;;31.57;28.72;100534.29;1714917;83;21066;-68
2022/07/29 10:16:11;;;;;;;6.50;2.40;;;;;;;31.51;28.75;100535.02;1714744;83;21116;-70
2022/07/29 10:18:40;;;;;;;6.67;2.35;;;;;;;31.49;28.86;100536.55;1714366;83;21100;-69
2022/07/29 10:21:07;;;;;;;4.97;2.00;;;;;;;31.64;28.66;100534.41;1714499;83;21105;-69
2022/07/29 10:23:35;;;;;;;5.37;1.90;;;;;;;31.89;28.50;100529.03;1714478;83;21105;-68
2022/07/29 10:26:04;;;;;;;8.78;2.10;;;;;;;32.31;27.61;100528.92;1714548;83;21072;-70
2022/07/29 10:28:31;;;;;;;4.47;1.72;;;;;;;32.73;26.66;100522.44;1714600;83;21115;-70
2022/07/29 10:31:04;;;;;;;5.10;1.92;;;;;;;32.94;26.63;100522.98;1714139;83;21045;-69
2022/07/29 10:33:54;;;;;;;4.95;1.70;;;;;;;33.14;26.34;100524.06;1714643;83;21613;-70
2022/07/29 10:36:56;;;;;;;3.25;1.80;;;;;;;33.16;26.40;100526.61;1714109;83;21597;-70
2022/07/29 10:39:40;;;;;;;4.97;2.12;;;;;;;33.20;26.92;100521.09;1714429;81;21168;-71
2022/07/29 10:42:24;;;;;;;4.42;1.87;;;;;;;33.15;26.87;100520.80;1644746;83;21640;-69
2022/07/29 10:44:51;;;;;;;4.15;2.17;;;;;;;33.10;26.82;100522.76;1714227;83;21069;-70
2022/07/29 10:47:24;;;;;;;4.87;2.27;;;;;;;33.18;26.67;100517.19;1714138;83;21617;-70
2022/07/29 10:50:04;;;;;;;4.80;2.17;;;;;;;33.05;27.11;100504.77;1714673;83;21045;-71
2022/07/29 10:52:58;;;;;;;9.18;2.45;;;;;;;32.64;27.43;100512.16;1714354;83;21084;-69
2022/07/29 10:55:42;;;;;;;7.42;2.00;;;;;;;32.49;27.58;100508.61;1736408;82;21273;-69
2022/07/29 10:58:23;;;;;;;4.15;1.95;;;;;;;32.48;27.80;100506.91;1714581;83;21050;-70
2022/07/29 11:00:53;;;;;;;4.78;2.00;;;;;;;32.70;27.22;100507.31;1714953;83;21101;-70
2022/07/29 11:03:46;;;;;;;3.42;1.92;;;;;;;33.20;26.98;100508.28;1714488;83;21061;-71
2022/07/29 11:06:13;;;;;;;6.33;1.65;;;;;;;33.70;26.27;100507.45;1714648;83;21116;-69
2022/07/29 11:08:41;;;;;;;2.60;1.80;;;;;;;34.11;25.26;100505.32;1714311;83;21167;-70
2022/07/29 11:11:30;;;;;;;3.92;1.70;;;;;;;34.32;24.56;100507.94;1714223;83;21111;-69
2022/07/29 11:13:56;;;;;;;7.62;1.87;;;;;;;34.29;24.63;100508.36;1714363;83;22057;-69
2022/07/29 11:16:25;;;;;;;5.25;1.85;;;;;;;34.38;24.40;100503.03;1711808;83;21772;-70
2022/07/29 11:19:15;;;;;;;5.78;2.10;;;;;;;34.55;24.17;100505.41;1706772;84;21132;-68
2022/07/29 11:21:49;;;;;;;9.05;2.20;;;;;;;34.40;24.26;100494.64;1742238;82;21047;-69
2022/07/29 11:24:27;;;;;;;6.70;2.17;;;;;;;33.87;24.92;100488.34;1742799;82;21062;-71
2022/07/29 11:27:14;;;;;;;6.45;2.40;;;;;;;33.81;25.40;100498.70;1706780;84;21124;-70
2022/07/29 11:29:55;;;;;;;4.10;1.70;;;;;;;33.73;26.01;100492.02;1706829;84;21617;-68
2022/07/29 11:32:24;;;;;;;2.80;1.72;;;;;;;33.72;25.33;100494.44;1706540;84;21496;-70
2022/07/29 11:35:24;;;;;;;4.20;2.00;;;;;;;33.93;25.05;100490.78;1706904;84;21014;-70
2022/07/29 11:38:27;;;;;;;3.20;1.72;;;;;;;34.15;24.94;100492.95;1706368;84;21133;-70
2022/07/29 11:41:24;;;;;;;3.55;1.80;;;;;;;34.33;24.19;100487.78;1706652;84;21650;-70
2022/07/29 11:43:58;;;;;;;5.92;1.80;;;;;;;34.42;24.44;100487.08;1742197;82;21082;-68